Terminal Aerodrome Forecast
Issued by NWS Sterling, VA

Current Version | Previous Version | Text Only | Print | Product List | Glossary Off
Versions: 1 2 3 4 5 6 7 8 9 10 11 12 13 14 15 16 17 18 19 20 21 22 23 24 25 26 27

235
FTUS41 KLWX 231128
TAFIAD
TAF
KIAD 231128Z 2312/2418 07018G35KT 1SM RA OVC005
     FM232000 07011G20KT 3SM -RA OVC005
     FM240000 02013KT 3SM -SHRA OVC005
     FM240600 34010KT P6SM OVC015
     FM241400 32011KT P6SM OVC035=

USA.gov is the U.S. government's official web portal to all federal, state and local government web resources and services.